Time;durP1;ratioP1;P1;durP2;ratioP2;P2;SDS_P1;SDS_P2;PMS_P1;PMS_P2;Temp;Humidity;BMP_temperature;BMP_pressure;BME280_temperature;BME280_humidity;BME280_pressure;Samples;Min_cycle;Max_cycle;Signal;HPM_P1;HPM_P2
2022/11/10 00:01:03;;;;;;;;;;;;;;;19.43;70.37;99068.78;2110246;28;19973;-48
2022/11/10 00:02:03;;;;;;;;;;;;;;;19.43;70.29;99071.47;2106449;27;19931;-48
2022/11/10 00:03:06;;;;;;;;;;;;;;;19.45;70.48;99065.06;2109190;28;20274;-47
2022/11/10 00:04:07;;;;;;;;;;;;;;;19.45;70.17;99063.22;2105951;28;19924;-47
2022/11/10 00:05:09;;;;;;;;;;;;;;;19.45;70.33;99065.06;2110735;28;19946;-47
2022/11/10 00:06:11;;;;;;;;;;;;;;;19.45;70.42;99065.91;2108036;28;19935;-50
2022/11/10 00:07:11;;;;;;;;;;;;;;;19.45;70.47;99060.53;2107644;27;19924;-47
2022/11/10 00:08:13;;;;;;;;;;;;;;;19.46;70.71;99066.72;2107816;28;19923;-47
2022/11/10 00:09:13;;;;;;;;;;;;;;;19.45;70.88;99067.78;2109174;28;19919;-48
2022/11/10 00:10:15;;;;;;;;;;;;;;;19.44;70.84;99061.53;2108229;28;19929;-50
2022/11/10 00:11:15;;;;;;;;;;;;;;;19.45;70.48;99070.47;2108287;28;20430;-48
2022/11/10 00:12:17;;;;;;;;;;;;;;;19.46;70.61;99064.03;2109370;28;19927;-47
2022/11/10 00:13:18;;;;;;;;;;;;;;;19.45;70.74;99059.69;2109169;27;19943;-47
2022/11/10 00:17:03;;;;;;;;;;;;;;;19.42;70.86;99053.69;2108671;27;20438;-48
2022/11/10 00:18:04;;;;;;;;;;;;;;;19.43;70.87;99059.88;2109527;28;19920;-48
2022/11/10 00:19:05;;;;;;;;;;;;;;;19.43;70.91;99063.41;2105107;28;23210;-47
2022/11/10 00:20:06;;;;;;;;;;;;;;;19.46;71.09;99055.97;2104255;28;19920;-47
2022/11/10 00:21:09;;;;;;;;;;;;;;;19.45;70.63;99059.69;2106049;28;19924;-49
2022/11/10 00:22:10;;;;;;;;;;;;;;;19.41;71.00;99062.75;2105742;28;19928;-48
2022/11/10 00:23:11;;;;;;;;;;;;;;;19.41;70.64;99062.75;2103250;28;19930;-48
2022/11/10 00:24:12;;;;;;;;;;;;;;;19.42;71.13;99061.75;2105579;28;20285;-50
2022/11/10 00:25:13;;;;;;;;;;;;;;;19.42;70.71;99053.69;2100522;28;19934;-47
2022/11/10 00:26:17;;;;;;;;;;;;;;;19.44;70.92;99061.53;2107688;28;19920;-50
2022/11/10 00:27:18;;;;;;;;;;;;;;;19.42;71.00;99052.84;2108318;28;19923;-47
2022/11/10 00:28:19;;;;;;;;;;;;;;;19.44;70.83;99061.53;2110832;28;19923;-47
2022/11/10 00:29:20;;;;;;;;;;;;;;;19.42;70.80;99056.38;2108194;28;19924;-48
2022/11/10 00:30:21;;;;;;;;;;;;;;;19.42;71.03;99052.84;2106954;28;20377;-48
2022/11/10 00:31:23;;;;;;;;;;;;;;;19.42;71.17;99064.44;2107735;28;19924;-47
2022/11/10 00:32:25;;;;;;;;;;;;;;;19.42;70.85;99055.53;2108703;28;19928;-47
2022/11/10 00:33:26;;;;;;;;;;;;;;;19.41;70.82;99062.75;2108033;28;19923;-48
2022/11/10 00:34:27;;;;;;;;;;;;;;;19.41;71.20;99057.38;2104570;28;19919;-50
2022/11/10 00:35:28;;;;;;;;;;;;;;;19.40;71.23;99055.72;2103212;27;20812;-50
2022/11/10 00:36:29;;;;;;;;;;;;;;;19.42;71.19;99060.91;2106835;28;19998;-49
2022/11/10 00:37:31;;;;;;;;;;;;;;;19.41;70.96;99057.38;2105236;28;19935;-47
2022/11/10 00:38:31;;;;;;;;;;;;;;;19.41;71.00;99061.94;2105822;28;19923;-46
2022/11/10 00:39:33;;;;;;;;;;;;;;;19.40;70.77;99061.09;2108499;28;19930;-47
2022/11/10 00:40:34;;;;;;;;;;;;;;;19.40;70.76;99066.50;2107380;28;19928;-50
2022/11/10 00:41:35;;;;;;;;;;;;;;;19.40;71.16;99066.50;2107445;28;19919;-48
2022/11/10 00:42:36;;;;;;;;;;;;;;;19.39;71.31;99061.31;2100513;28;19928;-47
2022/11/10 00:43:37;;;;;;;;;;;;;;;19.39;71.24;99064.84;2105887;28;20002;-47
2022/11/10 00:44:38;;;;;;;;;;;;;;;19.39;70.82;99059.47;2102863;28;20528;-48
2022/11/10 00:45:41;;;;;;;;;;;;;;;19.41;70.79;99073.50;2106569;28;20030;-48
2022/11/10 00:46:42;;;;;;;;;;;;;;;19.39;70.89;99064.84;2108321;28;20553;-47
2022/11/10 00:47:46;;;;;;;;;;;;;;;19.39;71.14;99059.47;2105999;28;19928;-47
2022/11/10 00:48:48;;;;;;;;;;;;;;;19.40;70.92;99066.50;2104586;28;19927;-48
2022/11/10 00:49:48;;;;;;;;;;;;;;;19.39;70.95;99064.84;2104437;28;19927;-47
2022/11/10 00:50:50;;;;;;;;;;;;;;;19.39;71.04;99067.53;2106386;28;21670;-47
2022/11/10 00:51:51;;;;;;;;;;;;;;;19.39;71.14;99062.16;2108219;28;19930;-47
2022/11/10 00:52:52;;;;;;;;;;;;;;;19.38;71.20;99062.34;2108414;28;19930;-47
2022/11/10 00:53:53;;;;;;;;;;;;;;;19.37;71.01;99060.69;2107478;28;19927;-47
2022/11/10 00:54:54;;;;;;;;;;;;;;;19.39;71.11;99066.69;2108785;28;20712;-47
2022/11/10 00:55:55;;;;;;;;;;;;;;;19.38;71.15;99063.16;2107450;28;19924;-48
2022/11/10 00:56:56;;;;;;;;;;;;;;;19.39;71.21;99064.00;2105735;28;20032;-47
2022/11/10 00:57:57;;;;;;;;;;;;;;;19.39;71.24;99070.22;2106962;28;19928;-50
2022/11/10 00:58:59;;;;;;;;;;;;;;;19.38;71.00;99063.16;2107870;28;19934;-48
2022/11/10 00:59:59;;;;;;;;;;;;;;;19.38;71.24;99068.53;2106809;28;20416;-48
2022/11/10 01:01:01;;;;;;;;;;;;;;;19.40;71.27;99062.97;2107303;28;19993;-50
2022/11/10 01:02:02;;;;;;;;;;;;;;;19.37;71.25;99058.81;2107205;28;20442;-48
2022/11/10 01:03:05;;;;;;;;;;;;;;;19.39;71.06;99048.69;2099903;28;19928;-47
2022/11/10 01:04:06;;;;;;;;;;;;;;;19.38;70.90;99056.94;2101248;28;19927;-49
2022/11/10 01:05:08;;;;;;;;;;;;;;;19.39;71.24;99050.56;2106492;28;19928;-48
2022/11/10 01:06:09;;;;;;;;;;;;;;;19.37;71.26;99050.75;2109143;28;19927;-47
2022/11/10 01:07:11;;;;;;;;;;;;;;;19.36;71.41;99054.47;2109732;28;19950;-48
2022/11/10 01:08:12;;;;;;;;;;;;;;;19.36;71.05;99053.63;2107721;28;20557;-48
2022/11/10 01:09:13;;;;;;;;;;;;;;;19.37;71.15;99055.31;2108542;28;20577;-48
2022/11/10 01:10:14;;;;;;;;;;;;;;;19.37;71.32;99055.31;2107111;28;19920;-50
2022/11/10 01:11:16;;;;;;;;;;;;;;;19.37;70.88;99056.13;2107712;28;19927;-50
2022/11/10 01:12:18;;;;;;;;;;;;;;;19.35;70.97;99052.78;2107667;28;19924;-48
2022/11/10 01:13:18;;;;;;;;;;;;;;;19.35;70.92;99052.78;2108668;28;19920;-50
2022/11/10 01:14:20;;;;;;;;;;;;;;;19.37;70.92;99055.31;2108506;28;19924;-47
2022/11/10 01:15:20;;;;;;;;;;;;;;;19.36;70.95;99061.69;2108919;28;19928;-47
2022/11/10 01:16:23;;;;;;;;;;;;;;;19.36;71.18;99059.00;2108644;28;19920;-48
2022/11/10 01:17:23;;;;;;;;;;;;;;;19.34;71.38;99067.28;2099958;28;19935;-49
2022/11/10 01:18:26;;;;;;;;;;;;;;;19.35;71.18;99065.41;2105665;28;19919;-47
2022/11/10 01:19:27;;;;;;;;;;;;;;;19.35;71.11;99054.66;2108120;28;19920;-47
2022/11/10 01:20:28;;;;;;;;;;;;;;;19.35;71.25;99060.03;2108749;28;20015;-48
2022/11/10 01:21:29;;;;;;;;;;;;;;;19.35;70.95;99058.19;2108806;28;19939;-47
2022/11/10 01:22:31;;;;;;;;;;;;;;;19.35;71.35;99063.56;2108803;28;19920;-48
2022/11/10 01:23:31;;;;;;;;;;;;;;;19.34;70.97;99058.41;2107788;28;19926;-48
2022/11/10 01:24:33;;;;;;;;;;;;;;;19.33;71.34;99070.97;2109257;28;19934;-47
2022/11/10 01:25:33;;;;;;;;;;;;;;;19.34;71.15;99069.16;2107342;28;19920;-47
2022/11/10 01:26:35;;;;;;;;;;;;;;;19.33;71.00;99065.59;2108644;28;19928;-48
2022/11/10 01:27:36;;;;;;;;;;;;;;;19.34;71.11;99067.28;2108692;28;19924;-49
2022/11/10 01:28:38;;;;;;;;;;;;;;;19.34;70.94;99069.97;2107987;28;19924;-47
2022/11/10 01:29:38;;;;;;;;;;;;;;;19.33;71.03;99062.91;2107868;28;19924;-47
2022/11/10 01:30:40;;;;;;;;;;;;;;;19.33;71.32;99065.59;2108136;28;19924;-47
2022/11/10 01:31:40;;;;;;;;;;;;;;;19.33;71.22;99068.28;2107900;28;19945;-49
2022/11/10 01:32:42;;;;;;;;;;;;;;;19.32;71.15;99061.25;2100668;28;19924;-47
2022/11/10 01:33:44;;;;;;;;;;;;;;;19.32;71.07;99068.50;2100361;28;19923;-48
2022/11/10 01:34:45;;;;;;;;;;;;;;;19.32;71.32;99063.94;2102041;28;19963;-50
2022/11/10 01:35:46;;;;;;;;;;;;;;;19.31;71.27;99072.25;2108768;28;19920;-47
2022/11/10 01:36:47;;;;;;;;;;;;;;;19.31;71.26;99073.06;2108683;28;19919;-46
2022/11/10 01:37:50;;;;;;;;;;;;;;;19.31;71.35;99075.75;2105071;28;19924;-47
2022/11/10 01:38:52;;;;;;;;;;;;;;;19.31;71.25;99077.63;2101383;28;19932;-46
2022/11/10 01:39:52;;;;;;;;;;;;;;;19.30;71.16;99078.63;2104473;28;19939;-47
2022/11/10 01:40:54;;;;;;;;;;;;;;;19.31;71.22;99080.31;2102002;28;21765;-47
2022/11/10 01:41:54;;;;;;;;;;;;;;;19.30;71.26;99078.63;2106370;28;19924;-47
2022/11/10 01:42:57;;;;;;;;;;;;;;;19.30;71.36;99075.94;2101532;28;20022;-47
2022/11/10 01:44:14;;;;;;;;;;;;;;;19.29;71.51;99071.59;2105464;28;20336;-48
2022/11/10 01:45:34;;;;;;;;;;;;;;;19.29;70.96;99075.13;2105495;28;19990;-49
2022/11/10 01:46:35;;;;;;;;;;;;;;;19.29;71.29;99075.13;2100827;28;19928;-48
2022/11/10 01:47:36;;;;;;;;;;;;;;;19.28;71.46;99078.84;2102163;28;19923;-49
2022/11/10 01:48:39;;;;;;;;;;;;;;;19.27;71.13;99081.72;2107377;28;19934;-48
2022/11/10 01:49:41;;;;;;;;;;;;;;;19.26;71.41;99083.56;2104692;28;19930;-47
2022/11/10 01:50:43;;;;;;;;;;;;;;;19.28;71.49;99083.38;2104395;28;19923;-49
2022/11/10 01:51:45;;;;;;;;;;;;;;;19.28;71.16;99084.22;2106346;28;19919;-48
2022/11/10 01:52:48;;;;;;;;;;;;;;;19.27;71.39;99087.91;2105878;28;19946;-50
2022/11/10 01:53:51;;;;;;;;;;;;;;;19.28;71.19;99086.91;2106950;28;19928;-49
2022/11/10 01:54:53;;;;;;;;;;;;;;;19.27;71.13;99084.41;2107585;28;20407;-48
2022/11/10 01:55:54;;;;;;;;;;;;;;;19.27;71.14;99079.84;2105327;28;19919;-47
2022/11/10 01:56:58;;;;;;;;;;;;;;;19.26;71.30;99075.50;2107281;28;20005;-47
2022/11/10 01:57:59;;;;;;;;;;;;;;;19.27;71.53;99084.41;2105608;28;19928;-48
2022/11/10 01:59:03;;;;;;;;;;;;;;;19.26;71.05;99078.19;2106020;28;19926;-51
2022/11/10 02:00:04;;;;;;;;;;;;;;;19.26;71.09;99074.69;2106164;28;19920;-47
2022/11/10 02:01:06;;;;;;;;;;;;;;;19.26;71.47;99083.56;2103658;28;19927;-48
2022/11/10 02:02:10;;;;;;;;;;;;;;;19.27;71.46;99087.91;2106046;28;19920;-47
2022/11/10 02:03:14;;;;;;;;;;;;;;;19.27;71.31;99085.22;2107856;28;21998;-49
2022/11/10 02:04:16;;;;;;;;;;;;;;;19.27;71.14;99087.09;2105140;28;19972;-47
2022/11/10 02:05:19;;;;;;;;;;;;;;;19.25;71.51;99081.94;2106177;28;19970;-49
2022/11/10 02:06:21;;;;;;;;;;;;;;;19.26;71.23;99086.25;2102082;28;19924;-47
2022/11/10 02:07:23;;;;;;;;;;;;;;;19.25;71.13;99084.63;2106306;28;19930;-47
2022/11/10 02:08:24;;;;;;;;;;;;;;;19.26;71.33;99093.50;2106699;28;19923;-51
2022/11/10 02:09:26;;;;;;;;;;;;;;;19.26;71.39;99091.66;2107568;28;19920;-51
2022/11/10 02:10:26;;;;;;;;;;;;;;;19.26;71.57;99083.56;2106258;28;19923;-52
2022/11/10 02:11:28;;;;;;;;;;;;;;;19.27;71.58;99087.91;2108104;28;20358;-54
2022/11/10 02:12:35;;;;;;;;;;;;;;;19.24;71.08;99088.31;2107839;28;19928;-49
2022/11/10 02:13:37;;;;;;;;;;;;;;;19.23;71.18;99086.66;2108087;28;19959;-55
2022/11/10 02:14:37;;;;;;;;;;;;;;;19.24;71.58;99088.31;2108324;28;20258;-51
2022/11/10 02:15:39;;;;;;;;;;;;;;;19.25;71.38;99084.63;2107235;28;20184;-46
2022/11/10 02:16:41;;;;;;;;;;;;;;;19.24;71.17;99088.31;2103700;28;19930;-49
2022/11/10 02:17:43;;;;;;;;;;;;;;;19.25;71.20;99083.75;2105033;28;20311;-54
2022/11/10 02:18:44;;;;;;;;;;;;;;;19.23;71.27;99085.84;2105841;28;20404;-51
2022/11/10 02:19:45;;;;;;;;;;;;;;;19.24;71.35;99088.31;2109105;28;19924;-51
2022/11/10 02:20:47;;;;;;;;;;;;;;;19.23;71.28;99081.28;2108010;28;19919;-52
2022/11/10 02:21:49;;;;;;;;;;;;;;;19.25;71.57;99089.13;2108080;28;20397;-49
2022/11/10 02:22:49;;;;;;;;;;;;;;;19.24;71.34;99085.63;2107404;28;19930;-53
2022/11/10 02:23:52;;;;;;;;;;;;;;;19.24;71.44;99082.94;2105252;28;20442;-47
2022/11/10 02:24:52;;;;;;;;;;;;;;;19.23;71.48;99088.53;2099923;28;20482;-53
2022/11/10 02:25:54;;;;;;;;;;;;;;;19.22;71.17;99094.91;2107985;27;19924;-51
2022/11/10 02:26:56;;;;;;;;;;;;;;;19.23;71.52;99089.34;2107263;27;19923;-49
2022/11/10 02:27:57;;;;;;;;;;;;;;;19.23;71.11;99100.09;2107849;28;19935;-47
2022/11/10 02:28:58;;;;;;;;;;;;;;;19.23;70.97;99092.03;2111328;27;19919;-50
2022/11/10 02:29:59;;;;;;;;;;;;;;;19.23;71.29;99092.03;2111024;28;19928;-49
2022/11/10 02:31:00;;;;;;;;;;;;;;;19.24;71.34;99101.75;2111622;28;19924;-48
2022/11/10 02:32:01;;;;;;;;;;;;;;;19.25;71.35;99094.50;2106813;28;19928;-49
2022/11/10 02:33:03;;;;;;;;;;;;;;;19.23;71.43;99100.09;2108860;28;19920;-46
2022/11/10 02:34:03;;;;;;;;;;;;;;;19.24;71.09;99096.38;2109702;28;20519;-52
2022/11/10 02:35:06;;;;;;;;;;;;;;;19.22;71.27;99101.13;2110785;28;19992;-54
2022/11/10 02:36:08;;;;;;;;;;;;;;;19.21;71.37;99102.16;2111349;28;19923;-57
2022/11/10 02:37:10;;;;;;;;;;;;;;;19.22;71.18;99101.13;2114319;28;19924;-54
2022/11/10 02:38:10;;;;;;;;;;;;;;;19.21;71.16;99110.22;2109210;28;19968;-55
2022/11/10 02:39:12;;;;;;;;;;;;;;;19.22;71.09;99103.81;2109056;28;20866;-48
2022/11/10 02:40:12;;;;;;;;;;;;;;;19.21;70.99;99104.84;2106574;28;19923;-56
2022/11/10 02:41:14;;;;;;;;;;;;;;;19.22;71.35;99100.28;2104872;28;19935;-51
2022/11/10 02:42:14;;;;;;;;;;;;;;;19.21;71.07;99104.84;2108974;28;19923;-54
2022/11/10 02:43:17;;;;;;;;;;;;;;;19.21;71.39;99102.16;2109417;28;20270;-51
2022/11/10 02:44:18;;;;;;;;;;;;;;;19.21;71.27;99102.16;2109002;28;20006;-46
2022/11/10 02:45:19;;;;;;;;;;;;;;;19.18;70.99;99100.69;2100538;28;19928;-51
2022/11/10 02:46:20;;;;;;;;;;;;;;;19.19;71.27;99104.19;2105165;28;19928;-55
2022/11/10 02:47:22;;;;;;;;;;;;;;;19.19;71.21;99105.06;2109328;28;19938;-53
2022/11/10 02:48:22;;;;;;;;;;;;;;;19.19;71.22;99105.06;2109945;28;19927;-53
2022/11/10 02:49:24;;;;;;;;;;;;;;;19.20;71.31;99108.56;2107606;28;20081;-56
2022/11/10 02:50:25;;;;;;;;;;;;;;;19.20;71.25;99103.19;2103128;28;19928;-48
2022/11/10 02:51:27;;;;;;;;;;;;;;;19.20;71.46;99106.72;2104609;28;21715;-49
2022/11/10 02:52:28;;;;;;;;;;;;;;;19.20;71.19;99113.94;2108328;28;19924;-54
2022/11/10 02:53:30;;;;;;;;;;;;;;;19.19;71.37;99120.34;2108583;28;19930;-47
2022/11/10 02:54:30;;;;;;;;;;;;;;;19.18;71.15;99111.44;2109075;27;20320;-51
2022/11/10 02:55:32;;;;;;;;;;;;;;;19.20;71.25;99116.63;2108796;28;19923;-49
2022/11/10 02:56:34;;;;;;;;;;;;;;;19.18;71.38;99113.31;2107291;28;20291;-51
2022/11/10 02:57:36;;;;;;;;;;;;;;;19.19;71.05;99110.44;2110031;28;19928;-49
2022/11/10 02:58:36;;;;;;;;;;;;;;;19.19;71.19;99109.56;2110330;27;19919;-50
2022/11/10 02:59:38;;;;;;;;;;;;;;;19.18;71.47;99108.75;2109649;28;20755;-50
2022/11/10 03:00:38;;;;;;;;;;;;;;;19.18;71.36;99105.25;2108827;28;19930;-51
2022/11/10 03:01:40;;;;;;;;;;;;;;;19.19;71.47;99112.28;2102989;28;19924;-48
2022/11/10 03:02:41;;;;;;;;;;;;;;;19.18;71.11;99098.00;2109125;28;19924;-50
2022/11/10 03:03:42;;;;;;;;;;;;;;;19.17;71.19;99106.28;2107822;28;19920;-52
2022/11/10 03:04:43;;;;;;;;;;;;;;;19.17;71.24;99106.28;2107403;28;19934;-48
2022/11/10 03:05:44;;;;;;;;;;;;;;;19.17;71.31;99109.78;2109905;28;20379;-48
2022/11/10 03:06:46;;;;;;;;;;;;;;;19.18;71.33;99110.63;2106782;27;19924;-53
2022/11/10 03:07:52;;;;;;;;;;;;;;;19.18;71.45;99113.31;2107351;28;20026;-48
2022/11/10 03:08:52;;;;;;;;;;;;;;;19.16;71.39;99112.66;2105290;28;19928;-52
2022/11/10 03:09:54;;;;;;;;;;;;;;;19.16;71.29;99112.66;2109231;28;19970;-52
2022/11/10 03:10:55;;;;;;;;;;;;;;;19.17;71.19;99119.72;2109625;28;19923;-52
2022/11/10 03:11:56;;;;;;;;;;;;;;;19.15;71.34;99114.53;2109631;28;19939;-51
2022/11/10 03:12:57;;;;;;;;;;;;;;;19.16;71.37;99112.66;2110750;28;19950;-49
2022/11/10 03:13:59;;;;;;;;;;;;;;;19.15;71.38;99113.69;2109549;28;19920;-47
2022/11/10 03:14:59;;;;;;;;;;;;;;;19.14;71.45;99112.06;2106418;28;20404;-48
2022/11/10 03:16:01;;;;;;;;;;;;;;;19.15;71.20;99111.84;2109273;28;19920;-47
2022/11/10 03:17:02;;;;;;;;;;;;;;;19.16;71.16;99120.72;2108249;28;19927;-47
2022/11/10 03:18:04;;;;;;;;;;;;;;;19.15;71.32;99117.22;2111017;28;19930;-48
2022/11/10 03:19:05;;;;;;;;;;;;;;;19.17;71.41;99125.91;2109605;28;19927;-46
2022/11/10 03:20:07;;;;;;;;;;;;;;;19.19;71.41;99128.41;2109830;28;19938;-48
2022/11/10 03:21:08;;;;;;;;;;;;;;;19.16;71.26;99120.72;2108570;27;19927;-49
2022/11/10 03:22:10;;;;;;;;;;;;;;;19.17;71.10;99130.47;2108887;28;19931;-46
2022/11/10 03:23:12;;;;;;;;;;;;;;;19.15;71.44;99129.84;2109323;28;19984;-47
2022/11/10 03:24:13;;;;;;;;;;;;;;;19.15;71.50;99130.66;2108760;28;19935;-46
2022/11/10 03:25:14;;;;;;;;;;;;;;;19.16;71.54;99126.09;2109586;28;19926;-47
2022/11/10 03:26:15;;;;;;;;;;;;;;;19.16;71.55;99134.16;2108124;28;20634;-48
2022/11/10 03:27:16;;;;;;;;;;;;;;;19.15;71.46;99144.09;2108930;27;19919;-46
2022/11/10 03:28:17;;;;;;;;;;;;;;;19.15;71.28;99145.97;2104047;28;20305;-45
2022/11/10 03:29:19;;;;;;;;;;;;;;;19.16;71.42;99144.94;2103796;27;19934;-47
2022/11/10 03:30:19;;;;;;;;;;;;;;;19.15;71.21;99145.97;2107725;28;19924;-48
2022/11/10 03:31:21;;;;;;;;;;;;;;;19.14;71.46;99152.38;2107187;28;28171;-49
2022/11/10 03:32:21;;;;;;;;;;;;;;;19.14;71.26;99152.38;2106833;28;19923;-47
2022/11/10 03:33:23;;;;;;;;;;;;;;;19.14;71.52;99152.38;2104308;28;20308;-46
2022/11/10 03:34:23;;;;;;;;;;;;;;;19.13;71.21;99151.53;2097698;27;20695;-46
2022/11/10 03:35:25;;;;;;;;;;;;;;;19.14;71.27;99155.06;2105992;28;19924;-47
2022/11/10 03:36:25;;;;;;;;;;;;;;;19.15;71.22;99159.41;2106730;28;19919;-45
2022/11/10 03:37:28;;;;;;;;;;;;;;;19.14;71.22;99165.81;2108233;28;19927;-46
2022/11/10 03:38:30;;;;;;;;;;;;;;;19.13;71.29;99164.16;2108773;28;19924;-46
2022/11/10 03:39:30;;;;;;;;;;;;;;;19.13;71.59;99167.66;2109419;28;20392;-46
2022/11/10 03:40:32;;;;;;;;;;;;;;;19.13;71.71;99172.22;2109776;28;19923;-47
2022/11/10 03:41:32;;;;;;;;;;;;;;;19.10;71.70;99167.22;2107949;28;20415;-48
2022/11/10 03:42:34;;;;;;;;;;;;;;;19.13;71.57;99174.91;2106527;28;19923;-46
2022/11/10 03:43:34;;;;;;;;;;;;;;;19.10;71.56;99162.66;2109910;28;20293;-48
2022/11/10 03:44:36;;;;;;;;;;;;;;;19.12;71.55;99171.38;2107967;28;19920;-48
2022/11/10 03:45:37;;;;;;;;;;;;;;;19.11;71.88;99160.81;2110141;28;20378;-47
2022/11/10 03:46:38;;;;;;;;;;;;;;;19.10;71.58;99159.16;2109262;28;19929;-47
2022/11/10 03:47:39;;;;;;;;;;;;;;;19.10;71.80;99157.28;2109869;28;20369;-47
2022/11/10 03:48:40;;;;;;;;;;;;;;;19.12;71.50;99154.44;2108839;28;19927;-46
2022/11/10 03:49:41;;;;;;;;;;;;;;;19.11;71.43;99156.28;2109658;28;19927;-49
2022/11/10 03:50:43;;;;;;;;;;;;;;;19.10;71.48;99151.09;2109360;28;19923;-47
2022/11/10 03:51:43;;;;;;;;;;;;;;;19.10;71.71;99148.41;2102078;27;19920;-47
2022/11/10 03:52:46;;;;;;;;;;;;;;;19.11;71.56;99148.22;2105582;28;19923;-46
2022/11/10 03:53:47;;;;;;;;;;;;;;;19.10;71.84;99145.72;2104421;28;19923;-47
2022/11/10 03:54:49;;;;;;;;;;;;;;;19.10;71.67;99151.09;2109175;28;19949;-47
2022/11/10 03:55:49;;;;;;;;;;;;;;;19.11;71.91;99147.38;2109122;28;19923;-47
2022/11/10 03:56:51;;;;;;;;;;;;;;;19.08;71.48;99143.19;2108887;28;19932;-46
2022/11/10 03:57:51;;;;;;;;;;;;;;;19.10;71.53;99145.72;2108699;28;20320;-45
2022/11/10 03:58:53;;;;;;;;;;;;;;;19.09;71.53;99144.88;2105687;28;20027;-45
2022/11/10 03:59:53;;;;;;;;;;;;;;;19.09;71.86;99146.75;2109437;28;19928;-48
2022/11/10 04:00:55;;;;;;;;;;;;;;;19.09;71.71;99141.38;2108866;28;19928;-45
2022/11/10 04:01:56;;;;;;;;;;;;;;;19.07;71.88;99138.88;2108596;28;19923;-46
2022/11/10 04:02:57;;;;;;;;;;;;;;;19.08;71.54;99147.75;2110389;28;20549;-46
2022/11/10 04:03:58;;;;;;;;;;;;;;;19.06;71.42;99137.22;2109390;28;19931;-45
2022/11/10 04:08:59;;;;;;;;;;;;;;;19.05;71.72;99129.31;2108297;27;19919;-47
2022/11/10 04:10:00;;;;;;;;;;;;;;;19.04;71.49;99125.81;2106918;28;19930;-48
2022/11/10 04:11:01;;;;;;;;;;;;;;;19.05;71.64;99121.25;2109231;28;19924;-48
2022/11/10 04:16:00;;;;;;;;;;;;;;;19.05;71.64;99103.28;2108127;28;20327;-45
2022/11/10 04:17:01;;;;;;;;;;;;;;;19.06;71.62;99107.63;2101168;28;19928;-45
2022/11/10 04:19:18;;;;;;;;;;;;;;;19.04;71.85;99101.63;2108414;28;20018;-49
2022/11/10 04:20:19;;;;;;;;;;;;;;;19.05;71.57;99089.81;2107442;28;19924;-47
2022/11/10 04:21:20;;;;;;;;;;;;;;;19.04;71.78;99087.34;2106555;28;19924;-47
2022/11/10 04:23:37;;;;;;;;;;;;;;;19.05;71.72;99062.13;2108603;28;19931;-46
2022/11/10 04:24:39;;;;;;;;;;;;;;;19.03;71.91;99053.41;2109257;28;19926;-48
2022/11/10 04:26:27;;;;;;;;;;;;;;;19.03;71.86;99037.28;2108020;28;20911;-46
2022/11/10 04:27:04;;;;;;;;;;;;;;;19.08;71.77;99027.59;2108403;28;19923;-58
2022/11/10 04:28:06;;;;;;;;;;;;;;;19.08;72.12;99024.09;2109357;28;19981;-47
2022/11/10 04:29:08;;;;;;;;;;;;;;;19.08;71.93;99024.09;2106711;28;19923;-46
2022/11/10 04:30:10;;;;;;;;;;;;;;;19.07;71.82;99023.25;2109451;28;19923;-47
2022/11/10 04:31:10;;;;;;;;;;;;;;;19.08;71.82;99024.09;2109145;28;19930;-48
2022/11/10 04:32:12;;;;;;;;;;;;;;;19.08;71.75;99021.41;2108649;28;19930;-51
2022/11/10 04:33:13;;;;;;;;;;;;;;;19.07;71.63;99027.81;2107410;28;19920;-52
2022/11/10 04:34:15;;;;;;;;;;;;;;;19.07;71.70;99044.75;2109543;28;19933;-47
2022/11/10 04:35:15;;;;;;;;;;;;;;;19.07;71.64;99049.31;2109258;28;19920;-50
2022/11/10 04:36:19;;;;;;;;;;;;;;;19.07;71.67;99054.69;2109649;27;19924;-48
2022/11/10 04:37:19;;;;;;;;;;;;;;;19.07;71.60;99066.28;2109318;28;19934;-48
2022/11/10 04:38:21;;;;;;;;;;;;;;;19.05;71.67;99070.19;2107328;28;20010;-47
2022/11/10 04:39:22;;;;;;;;;;;;;;;19.05;71.72;99083.63;2106692;28;19942;-46
2022/11/10 04:40:23;;;;;;;;;;;;;;;19.05;71.82;99089.81;2104891;28;20530;-50
2022/11/10 04:41:27;;;;;;;;;;;;;;;19.06;71.60;99079.94;2105258;28;19928;-49
2022/11/10 04:42:28;;;;;;;;;;;;;;;19.04;71.93;99079.28;2103706;28;19924;-47
2022/11/10 04:43:30;;;;;;;;;;;;;;;19.04;71.75;99081.97;2105318;28;19930;-49
2022/11/10 04:44:31;;;;;;;;;;;;;;;19.03;71.77;99085.66;2103404;28;19920;-50
2022/11/10 04:45:32;;;;;;;;;;;;;;;19.01;71.81;99088.56;2107256;28;19923;-48
2022/11/10 04:46:34;;;;;;;;;;;;;;;19.02;71.76;99079.47;2107640;28;19923;-47
2022/11/10 04:47:35;;;;;;;;;;;;;;;19.03;71.73;99080.28;2109307;28;19939;-49
2022/11/10 04:48:36;;;;;;;;;;;;;;;19.03;71.98;99080.28;2109145;28;20536;-49
2022/11/10 04:49:38;;;;;;;;;;;;;;;19.03;71.78;99085.66;2107371;28;19927;-50
2022/11/10 04:50:39;;;;;;;;;;;;;;;19.02;71.71;99079.47;2107777;28;19931;-48
2022/11/10 04:51:40;;;;;;;;;;;;;;;19.02;71.80;99084.03;2105376;28;19927;-51
2022/11/10 04:52:41;;;;;;;;;;;;;;;19.02;71.49;99073.25;2108791;28;19924;-47
2022/11/10 04:53:42;;;;;;;;;;;;;;;19.01;71.73;99075.13;2108421;27;19930;-46
2022/11/10 04:54:43;;;;;;;;;;;;;;;19.02;71.81;99073.25;2109482;28;19924;-46
2022/11/10 04:55:45;;;;;;;;;;;;;;;19.04;71.62;99073.91;2108731;28;19926;-47
2022/11/10 04:56:46;;;;;;;;;;;;;;;19.01;71.84;99071.63;2107029;28;19927;-50
2022/11/10 04:57:48;;;;;;;;;;;;;;;19.00;71.57;99064.56;2109034;28;19959;-48
2022/11/10 04:58:49;;;;;;;;;;;;;;;19.00;71.84;99062.72;2109529;28;19945;-50
2022/11/10 04:59:50;;;;;;;;;;;;;;;18.98;71.55;99062.09;2108817;28;19923;-49
2022/11/10 05:00:51;;;;;;;;;;;;;;;19.00;71.84;99061.88;2108488;28;19924;-49
2022/11/10 05:01:52;;;;;;;;;;;;;;;18.99;71.54;99058.34;2108097;28;19926;-50
2022/11/10 05:02:53;;;;;;;;;;;;;;;18.96;71.92;99054.19;2108825;28;20388;-49
2022/11/10 05:03:55;;;;;;;;;;;;;;;18.98;71.71;99045.94;2109228;28;19924;-50
2022/11/10 05:04:55;;;;;;;;;;;;;;;18.98;72.13;99062.91;2107532;28;20269;-48
2022/11/10 05:05:57;;;;;;;;;;;;;;;18.98;71.78;99051.31;2101681;28;19921;-47
2022/11/10 05:06:57;;;;;;;;;;;;;;;18.97;72.06;99050.50;2104235;28;20385;-48
2022/11/10 05:07:59;;;;;;;;;;;;;;;19.01;72.01;99050.09;2105781;28;19934;-48
2022/11/10 05:09:01;;;;;;;;;;;;;;;19.00;71.88;99051.13;2105951;28;19930;-47
2022/11/10 05:10:01;;;;;;;;;;;;;;;19.01;71.92;99055.47;2105643;28;19919;-49
2022/11/10 05:11:03;;;;;;;;;;;;;;;19.01;72.25;99052.78;2108865;28;19920;-49
2022/11/10 05:12:05;;;;;;;;;;;;;;;19.03;72.16;99058.78;2104307;28;19923;-46
2022/11/10 05:13:07;;;;;;;;;;;;;;;19.06;71.91;99061.13;2109887;28;19919;-52
2022/11/10 05:14:08;;;;;;;;;;;;;;;19.07;72.14;99060.06;2108155;28;19923;-53
2022/11/10 05:15:09;;;;;;;;;;;;;;;19.08;72.15;99062.53;2109476;28;19923;-56
2022/11/10 05:16:12;;;;;;;;;;;;;;;19.10;72.00;99073.13;2101341;28;20417;-49
2022/11/10 05:17:12;;;;;;;;;;;;;;;19.11;71.85;99072.94;2107009;28;19947;-51
2022/11/10 05:18:14;;;;;;;;;;;;;;;19.16;71.51;99072.31;2099849;28;20064;-52
2022/11/10 05:19:14;;;;;;;;;;;;;;;19.18;71.68;99086.41;2106814;28;19930;-55
2022/11/10 05:20:16;;;;;;;;;;;;;;;19.18;71.89;99083.72;2102155;28;21636;-53
2022/11/10 05:21:18;;;;;;;;;;;;;;;19.20;71.67;99095.13;2103255;28;19930;-48
2022/11/10 05:22:18;;;;;;;;;;;;;;;19.20;71.56;99097.81;2106539;28;19923;-51
2022/11/10 05:23:39;;;;;;;;;;;;;;;19.21;71.29;99104.84;2096099;28;19928;-54
2022/11/10 05:24:39;;;;;;;;;;;;;;;19.22;71.17;99098.44;2108950;28;19930;-47
2022/11/10 05:25:42;;;;;;;;;;;;;;;19.21;71.62;99099.47;2102052;28;19934;-53
2022/11/10 05:26:42;;;;;;;;;;;;;;;19.23;71.20;99105.50;2109141;28;19949;-54
2022/11/10 05:27:45;;;;;;;;;;;;;;;19.23;71.17;99102.78;2106375;28;19928;-47
2022/11/10 05:28:47;;;;;;;;;;;;;;;19.24;71.42;99101.75;2105475;28;19920;-48
2022/11/10 05:29:47;;;;;;;;;;;;;;;19.25;71.30;99110.66;2107931;28;19954;-49
2022/11/10 05:30:49;;;;;;;;;;;;;;;19.25;71.22;99106.13;2108458;28;20407;-48
2022/11/10 05:31:49;;;;;;;;;;;;;;;19.26;71.45;99105.09;2098313;28;20601;-50
2022/11/10 05:32:51;;;;;;;;;;;;;;;19.26;70.95;99107.78;2098375;28;19934;-45
2022/11/10 05:33:52;;;;;;;;;;;;;;;19.27;70.85;99108.59;2102572;28;19923;-48
2022/11/10 05:34:53;;;;;;;;;;;;;;;19.28;70.88;99099.50;2103103;28;19924;-51